Gesamt
Norseman Airport (Norseman, Western Australia) YNSM Wetter
|
Norseman, Western Australia (YNSM)
Klarer Himmel
Leichter Wind |
|
14 °C |
There is no TAF data available at YNSM or any nearby airports.
Kürzlicher METAR-Verlauf für YNSM
| Date | Time (AWST) | Flight Rules | Wind Dir. | Speed | Type | Height AGL (ft) | Visibility | Temp (°C) | Temp (°F) | Dew Point (°C) | Dew Point (°F) | Rel. Humid. | Pressure | Density Altitude | Remarks |
|---|---|---|---|---|---|---|---|---|---|---|---|---|---|---|---|
| 09-Mai | 20:00 | n/a | 90° | 8 kt | Missing | 14° | 57° | 7° | 44° | 63% | 1029 mb | 285 ft | |||
| 09-Mai | 19:00 | n/a | 100° | 8 kt | Missing | 15° | 59° | 8° | 46° | 63% | 1029 mb | 405 ft | |||
| 09-Mai | 18:00 | n/a | 100° | 7 kt | Missing | 17° | 62° | 7° | 44° | 52% | 1029 mb | 645 ft | |||
| 09-Mai | 17:00 | n/a | 70° | 7 kt | Missing | 19° | 66° | 6° | 42° | 43% | 1028 mb | 914 ft | |||
| 09-Mai | 16:00 | n/a | 80° | 7 kt | Missing | 20° | 68° | 6° | 42° | 40% | 1028 mb | 1.034 ft | |||
| 09-Mai | 15:00 | n/a | 50° | 7 kt | Missing | 20° | 68° | 6° | 42° | 40% | 1028 mb | 1.034 ft | |||
| 09-Mai | 14:00 | n/a | 60° | 7 kt | Missing | 20° | 68° | 6° | 42° | 40% | 1028 mb | 1.034 ft | |||
| 09-Mai | 13:00 | n/a | 60° | 6 kt | Missing | 18° | 64° | 7° | 44° | 49% | 1029 mb | 765 ft | |||
| 09-Mai | 12:00 | n/a | 40° | 9 kt | Missing | 18° | 64° | 7° | 44° | 49% | 1030 mb | 735 ft | |||
| 09-Mai | 11:00 | n/a | 20° | 7 kt | Missing | 16° | 60° | 7° | 44° | 55% | 1031 mb | 466 ft | |||
| 09-Mai | 10:00 | n/a | 30° | 9 kt | Missing | 15° | 59° | 7° | 44° | 59% | 1032 mb | 316 ft | |||
| 09-Mai | 09:00 | n/a | 30° | 11 kt | Missing | 14° | 57° | 7° | 44° | 63% | 1032 mb | 196 ft | |||
| 09-Mai | 08:00 | n/a | 40° | 11 kt | Missing | 14° | 57° | 6° | 42° | 58% | 1032 mb | 196 ft | |||
| 09-Mai | 07:00 | n/a | 50° | 9 kt | Missing | 13° | 55° | 6° | 42° | 62% | 1032 mb | 76 ft | |||
| 09-Mai | 06:00 | n/a | 40° | 13 kt | Missing | 13° | 55° | 6° | 42° | 62% | 1031 mb | 106 ft | |||
| 09-Mai | 05:00 | n/a | 50° | 9 kt | Missing | 13° | 55° | 6° | 42° | 62% | 1031 mb | 106 ft | |||
| 09-Mai | 04:00 | n/a | 40° | 7 kt | Missing | 13° | 55° | 6° | 42° | 62% | 1031 mb | 106 ft | |||
| 09-Mai | 03:00 | n/a | 50° | 9 kt | Missing | 13° | 55° | 6° | 42° | 62% | 1031 mb | 106 ft | |||
| 09-Mai | 02:00 | n/a | 70° | 5 kt | Missing | 10° | 50° | 6° | 42° | 76% | 1031 mb | -254 ft | |||
| 09-Mai | 01:00 | n/a | 60° | 5 kt | Missing | 13° | 55° | 6° | 42° | 62% | 1031 mb | 106 ft | |||
| 09-Mai | 00:00 | n/a | 70° | 5 kt | Missing | 12° | 53° | 6° | 42° | 67% | 1031 mb | -14 ft | |||
| 08-Mai | 23:00 | n/a | 90° | 5 kt | Missing | 11° | 51° | 5° | 41° | 66% | 1032 mb | -164 ft | |||
| 08-Mai | 22:00 | n/a | 100° | 5 kt | Missing | 10° | 50° | 4° | 39° | 66% | 1032 mb | -284 ft | |||
| 08-Mai | 21:00 | n/a | 90° | 6 kt | Missing | 11° | 51° | 4° | 39° | 62% | 1032 mb | -164 ft |
Anmelden
| Ihr Browser wird nicht unterstützt. aktualisieren Sie Ihren Browser |
